createdAt,value
2023-07-18T00:00:37.838Z,97092.63
2023-07-18T00:03:05.531Z,97082.50
2023-07-18T00:05:37.438Z,97079.16
2023-07-18T00:08:07.943Z,97083.47
2023-07-18T00:10:37.636Z,97077.78
2023-07-18T00:13:06.598Z,97079.25
2023-07-18T00:15:38.137Z,97075.69
2023-07-18T00:18:04.875Z,97082.72
2023-07-18T00:20:31.966Z,97081.34
2023-07-18T00:22:58.774Z,97080.66
2023-07-18T00:25:25.647Z,97081.91
2023-07-18T00:27:54.944Z,97084.09
2023-07-18T00:30:25.189Z,97086.19
2023-07-18T00:32:54.380Z,97074.47
2023-07-18T00:35:21.050Z,97080.28
2023-07-18T00:37:53.499Z,97077.38
2023-07-18T00:40:20.265Z,97080.09
2023-07-18T00:42:50.636Z,97075.00
2023-07-18T00:45:22.050Z,97075.00
2023-07-18T00:47:55.111Z,97077.84
2023-07-18T00:50:22.754Z,97068.91
2023-07-18T00:52:52.370Z,97062.94
2023-07-18T00:55:22.728Z,97062.38
2023-07-18T00:57:49.563Z,97062.44
2023-07-18T01:00:18.982Z,97060.00
2023-07-18T01:02:47.284Z,97062.00
2023-07-18T01:05:20.954Z,97057.25
2023-07-18T01:07:51.659Z,97059.25
2023-07-18T01:10:26.716Z,97063.06
2023-07-18T01:12:55.542Z,97067.19
2023-07-18T01:15:25.333Z,97070.72
2023-07-18T01:17:55.235Z,97059.06
2023-07-18T01:20:28.864Z,97054.34
2023-07-18T01:23:00.512Z,97047.69
2023-07-18T01:25:27.915Z,97048.25
2023-07-18T01:28:00.738Z,97047.53
2023-07-18T01:30:31.409Z,97048.81
2023-07-18T01:32:58.411Z,97048.16
2023-07-18T01:35:27.613Z,97043.69
2023-07-18T01:37:58.276Z,97050.16
2023-07-18T01:40:25.323Z,97043.53
2023-07-18T01:42:56.129Z,97040.34
2023-07-18T01:45:24.952Z,97038.25
2023-07-18T01:47:52.555Z,97035.91
2023-07-18T01:50:22.188Z,97040.44
2023-07-18T01:52:51.343Z,97030.00
2023-07-18T01:55:18.543Z,97033.34
2023-07-18T01:57:47.810Z,97037.97
2023-07-18T02:00:22.654Z,97033.41
2023-07-18T02:02:51.452Z,97032.72
2023-07-18T02:05:26.467Z,97038.03
2023-07-18T02:07:53.903Z,97040.75
2023-07-18T02:10:24.271Z,97044.91
2023-07-18T02:12:52.621Z,97034.38
2023-07-18T02:15:19.967Z,97033.41
2023-07-18T02:17:49.537Z,97040.63
2023-07-18T02:20:19.813Z,97036.66
2023-07-18T02:22:53.827Z,97044.53
2023-07-18T02:25:22.998Z,97035.75
2023-07-18T02:27:52.052Z,97041.25
2023-07-18T02:30:21.176Z,97030.00
2023-07-18T02:32:47.988Z,97029.53
2023-07-18T02:35:20.104Z,97024.66
2023-07-18T02:37:50.138Z,97028.06
2023-07-18T02:40:21.375Z,97029.41
2023-07-18T02:42:48.277Z,97030.59
2023-07-18T02:45:17.738Z,97027.41
2023-07-18T02:47:46.777Z,97035.44
2023-07-18T02:50:18.721Z,97030.88
2023-07-18T02:52:50.759Z,97029.34
2023-07-18T02:55:19.571Z,97029.31
2023-07-18T02:57:48.584Z,97032.44
2023-07-18T03:00:21.653Z,97030.59
2023-07-18T03:02:52.792Z,97026.22
2023-07-18T03:05:23.860Z,97030.13
2023-07-18T03:07:56.051Z,97025.75
2023-07-18T03:10:25.373Z,97030.56
2023-07-18T03:12:57.140Z,97025.28
2023-07-18T03:15:26.065Z,97029.81
2023-07-18T03:17:52.721Z,97017.22
2023-07-18T03:20:21.997Z,97031.88
2023-07-18T03:22:50.071Z,97032.19
2023-07-18T03:25:18.659Z,97026.44
2023-07-18T03:27:45.520Z,97026.09
2023-07-18T03:30:13.355Z,97026.19
2023-07-18T03:32:41.057Z,97026.59
2023-07-18T03:35:12.198Z,97017.44
2023-07-18T03:37:41.735Z,97017.31
2023-07-18T03:40:11.653Z,97016.81
2023-07-18T03:42:38.750Z,97016.97
2023-07-18T03:45:11.990Z,97019.00
2023-07-18T03:47:38.578Z,97018.19
2023-07-18T03:50:05.448Z,97018.38
2023-07-18T03:52:34.348Z,97008.94
2023-07-18T03:55:00.943Z,97012.09
2023-07-18T03:57:30.948Z,97016.19
2023-07-18T04:00:04.853Z,97011.75
2023-07-18T04:02:36.238Z,97016.22
2023-07-18T04:05:02.804Z,97019.84
2023-07-18T04:07:33.492Z,97004.09
2023-07-18T04:10:00.521Z,97004.16
2023-07-18T04:12:29.813Z,97000.16
2023-07-18T04:14:56.691Z,97002.69
2023-07-18T04:17:25.728Z,97000.56
2023-07-18T04:20:02.210Z,96997.56
2023-07-18T04:22:30.838Z,97000.19
2023-07-18T04:24:58.059Z,97004.44
2023-07-18T04:27:29.532Z,96996.41
2023-07-18T04:29:57.835Z,97001.19
2023-07-18T04:32:26.915Z,96991.13
2023-07-18T04:34:53.602Z,96992.66
2023-07-18T04:37:20.260Z,96986.94
2023-07-18T04:39:47.172Z,96999.09
2023-07-18T04:42:16.532Z,96989.31
2023-07-18T04:44:45.597Z,96989.03
2023-07-18T04:47:12.326Z,96972.44
2023-07-18T04:49:39.309Z,96976.41
2023-07-18T04:52:06.069Z,96971.13
2023-07-18T04:54:33.182Z,96972.28
2023-07-18T04:57:04.083Z,96972.50
2023-07-18T04:59:36.951Z,96980.16
2023-07-18T05:02:03.761Z,96985.94
2023-07-18T05:04:30.510Z,96982.94
2023-07-18T05:07:00.703Z,96984.25
2023-07-18T05:09:29.302Z,96981.50
2023-07-18T05:11:56.277Z,96983.31
2023-07-18T05:14:23.946Z,96978.56
2023-07-18T05:16:50.866Z,96974.81
2023-07-18T05:19:20.014Z,96968.38
2023-07-18T05:21:48.898Z,96971.69
2023-07-18T05:24:15.666Z,96971.31
2023-07-18T05:26:42.264Z,96968.69
2023-07-18T05:29:11.492Z,96963.81
2023-07-18T05:31:43.411Z,96951.44
2023-07-18T05:34:15.278Z,96954.81
2023-07-18T05:36:42.812Z,96952.94
2023-07-18T05:39:09.584Z,96941.50
2023-07-18T05:41:40.113Z,96943.81
2023-07-18T05:44:06.649Z,96956.78
2023-07-18T05:46:38.302Z,96950.97
2023-07-18T05:49:06.466Z,96953.19
2023-07-18T05:51:33.099Z,96944.94
2023-07-18T05:54:05.381Z,96946.41
2023-07-18T05:56:32.913Z,96943.16
2023-07-18T05:59:01.551Z,96939.06
2023-07-18T06:01:28.132Z,96941.72
2023-07-18T06:03:55.124Z,96944.69
2023-07-18T06:06:21.800Z,96936.44
2023-07-18T06:08:52.057Z,96939.50
2023-07-18T06:11:21.377Z,96935.44
2023-07-18T06:13:48.000Z,96921.63
2023-07-18T06:16:15.018Z,96929.09
2023-07-18T06:18:44.475Z,96930.63
2023-07-18T06:21:11.142Z,96929.03
2023-07-18T06:23:37.673Z,96938.38
2023-07-18T06:26:08.688Z,96940.94
2023-07-18T06:28:38.101Z,96936.94
2023-07-18T06:31:04.746Z,96938.03
2023-07-18T06:33:33.441Z,96932.03
2023-07-18T06:36:05.010Z,96919.06
2023-07-18T06:38:31.687Z,96915.25
2023-07-18T06:40:58.381Z,96906.25
2023-07-18T06:43:25.839Z,96913.91
2023-07-18T06:45:54.725Z,96910.69
2023-07-18T06:48:21.598Z,96909.91
2023-07-18T06:50:50.408Z,96906.00
2023-07-18T06:53:20.832Z,96901.19
2023-07-18T06:55:57.288Z,96908.16
2023-07-18T06:58:23.917Z,96902.78
2023-07-18T07:00:53.703Z,96898.59
2023-07-18T07:03:20.924Z,96900.25
2023-07-18T07:05:51.410Z,96902.94
2023-07-18T07:08:20.410Z,96897.81
2023-07-18T07:10:47.306Z,96886.84
2023-07-18T07:13:16.257Z,96880.25
2023-07-18T07:15:47.736Z,96882.59
2023-07-18T07:18:19.229Z,96882.59
2023-07-18T07:20:50.585Z,96878.94
2023-07-18T07:23:17.967Z,96876.22
2023-07-18T07:25:47.838Z,96877.91
2023-07-18T07:28:15.137Z,96872.78
2023-07-18T07:30:44.691Z,96872.41
2023-07-18T07:33:16.723Z,96864.41
2023-07-18T07:35:44.752Z,96860.47
2023-07-18T07:38:20.459Z,96857.81
2023-07-18T07:40:47.118Z,96857.44
2023-07-18T07:43:17.925Z,96845.53
2023-07-18T07:45:51.930Z,96840.47
2023-07-18T07:48:22.219Z,96851.66
2023-07-18T07:50:56.188Z,96854.50
2023-07-18T07:53:25.007Z,96847.25
2023-07-18T07:55:55.450Z,96836.81
2023-07-18T07:58:22.333Z,96833.75
2023-07-18T08:00:49.169Z,96827.19
2023-07-18T08:03:18.349Z,96824.94
2023-07-18T08:05:45.119Z,96828.44
2023-07-18T08:08:12.044Z,96825.56
2023-07-18T08:10:41.020Z,96826.41
2023-07-18T08:13:07.840Z,96822.59
2023-07-18T08:15:34.597Z,96819.41
2023-07-18T08:18:01.533Z,96817.25
2023-07-18T08:20:29.072Z,96807.63
2023-07-18T08:22:56.143Z,96808.78
2023-07-18T08:25:28.626Z,96815.72
2023-07-18T08:28:01.000Z,96820.34
2023-07-18T08:30:28.247Z,96808.03
2023-07-18T08:32:57.402Z,96810.25
2023-07-18T08:35:26.644Z,96810.50
2023-07-18T08:37:58.219Z,96796.25
2023-07-18T08:40:24.801Z,96794.25
2023-07-18T08:42:57.866Z,96793.03
2023-07-18T08:45:32.676Z,96785.50
2023-07-18T08:48:04.311Z,96788.53
2023-07-18T08:50:34.262Z,96789.63
2023-07-18T08:53:06.275Z,96785.94
2023-07-18T08:55:33.158Z,96800.19
2023-07-18T08:58:03.519Z,96797.16
2023-07-18T09:00:30.744Z,96799.19
2023-07-18T09:02:57.558Z,96814.44
2023-07-18T09:05:37.272Z,96819.72
2023-07-18T09:08:05.641Z,96807.09
2023-07-18T09:10:37.904Z,96804.66
2023-07-18T09:13:08.813Z,96808.13
2023-07-18T09:15:38.635Z,96795.13
2023-07-18T09:18:07.277Z,96772.69
2023-07-18T09:20:34.658Z,96762.53
2023-07-18T09:23:05.161Z,96752.53
2023-07-18T09:25:39.708Z,96740.47
2023-07-18T09:28:13.593Z,96748.19
2023-07-18T09:30:40.610Z,96755.53
2023-07-18T09:33:08.051Z,96752.25
2023-07-18T09:35:40.133Z,96758.75
2023-07-18T09:38:08.532Z,96764.66
2023-07-18T09:40:40.033Z,96751.38
2023-07-18T09:43:12.456Z,96748.16
2023-07-18T09:45:45.177Z,96742.06
2023-07-18T09:48:12.586Z,96739.97
2023-07-18T09:50:46.018Z,96738.31
2023-07-18T09:53:14.650Z,96751.38
2023-07-18T09:55:45.584Z,96752.34
2023-07-18T09:58:13.844Z,96758.44
2023-07-18T10:00:42.998Z,96773.75
2023-07-18T10:03:15.409Z,96794.91
2023-07-18T10:05:47.179Z,96822.03
2023-07-18T10:08:16.805Z,96840.72
2023-07-18T10:11:05.386Z,96833.00
2023-07-18T10:13:41.850Z,96836.75
2023-07-18T10:16:14.813Z,96841.63
2023-07-18T10:18:48.429Z,96813.69
2023-07-18T10:21:34.893Z,96807.75
2023-07-18T10:24:23.183Z,96780.88
2023-07-18T10:26:52.963Z,96770.41
2023-07-18T10:29:20.178Z,96755.44
2023-07-18T10:31:51.639Z,96747.31
2023-07-18T10:34:19.466Z,96721.94
2023-07-18T10:37:03.098Z,96707.53
2023-07-18T10:39:44.992Z,96700.22
2023-07-18T10:42:22.195Z,96699.25
2023-07-18T10:44:49.684Z,96688.41
2023-07-18T10:47:20.189Z,96682.97
2023-07-18T10:49:48.595Z,96678.22
2023-07-18T10:52:16.633Z,96690.56
2023-07-18T10:54:55.654Z,96723.63
2023-07-18T10:57:30.952Z,96741.09
2023-07-18T11:00:00.480Z,96785.59
2023-07-18T11:02:29.330Z,96886.19
2023-07-18T11:04:56.092Z,97013.19
2023-07-18T11:07:34.784Z,97059.38
2023-07-18T11:10:03.404Z,97038.63
2023-07-18T11:12:30.041Z,97069.72
2023-07-18T11:14:59.558Z,97100.13
2023-07-18T11:17:31.881Z,97129.72
2023-07-18T11:20:01.165Z,97105.22
2023-07-18T11:22:28.978Z,97140.06
2023-07-18T11:25:06.014Z,97126.59
2023-07-18T11:27:32.740Z,97054.44
2023-07-18T11:30:05.947Z,97013.84
2023-07-18T11:32:42.067Z,96963.09
2023-07-18T11:35:19.467Z,96848.03
2023-07-18T11:37:47.886Z,96721.38
2023-07-18T11:40:22.981Z,96726.72
2023-07-18T11:43:01.767Z,96720.38
2023-07-18T11:45:35.537Z,96722.41
2023-07-18T11:48:07.346Z,96689.06
2023-07-18T11:50:34.159Z,96719.00
2023-07-18T11:53:08.948Z,96737.47
2023-07-18T11:55:35.540Z,96743.53
2023-07-18T11:58:02.202Z,96795.16
2023-07-18T12:00:28.892Z,96841.53
2023-07-18T12:02:58.457Z,96851.16
2023-07-18T12:05:26.097Z,96870.28
2023-07-18T12:07:53.105Z,96880.81
2023-07-18T12:10:23.264Z,96889.97
2023-07-18T12:12:50.759Z,96836.47
2023-07-18T12:15:17.383Z,96770.81
2023-07-18T12:17:46.627Z,96764.91
2023-07-18T12:20:16.257Z,96785.69
2023-07-18T12:22:45.951Z,96782.72
2023-07-18T12:25:18.170Z,96789.56
2023-07-18T12:27:47.009Z,96807.47
2023-07-18T12:30:16.244Z,96844.00
2023-07-18T12:32:48.375Z,96832.22
2023-07-18T12:35:16.162Z,96820.09
2023-07-18T12:37:42.846Z,96774.25
2023-07-18T12:40:12.363Z,96714.81
2023-07-18T12:42:41.322Z,96720.34
2023-07-18T12:45:08.498Z,96766.75
2023-07-18T12:47:38.043Z,96775.06
2023-07-18T12:50:07.811Z,96782.63
2023-07-18T12:52:35.306Z,96783.41
2023-07-18T12:55:03.512Z,96780.59
2023-07-18T12:57:32.230Z,96808.41
2023-07-18T13:00:01.720Z,96829.59
2023-07-18T13:02:31.099Z,96833.09
2023-07-18T13:04:58.479Z,96804.44
2023-07-18T13:07:25.217Z,96754.78
2023-07-18T13:09:51.959Z,96711.06
2023-07-18T13:12:20.987Z,96690.78
2023-07-18T13:14:47.633Z,96683.91
2023-07-18T13:17:14.326Z,96648.34
2023-07-18T13:19:41.898Z,96645.97
2023-07-18T13:22:08.617Z,96661.22
2023-07-18T13:24:42.622Z,96673.63
2023-07-18T13:27:11.625Z,96685.41
2023-07-18T13:29:38.413Z,96697.00
2023-07-18T13:32:10.929Z,96678.72
2023-07-18T13:34:37.815Z,96698.66
2023-07-18T13:37:07.516Z,96705.34
2023-07-18T13:39:34.259Z,96703.28
2023-07-18T13:42:00.937Z,96692.53
2023-07-18T13:44:27.649Z,96681.75
2023-07-18T13:46:54.410Z,96655.88
2023-07-18T13:49:21.055Z,96641.25
2023-07-18T13:51:51.383Z,96636.31
2023-07-18T13:54:23.212Z,96620.22
2023-07-18T13:56:49.972Z,96615.31
2023-07-18T13:59:19.827Z,96610.41
2023-07-18T14:01:53.628Z,96613.44
2023-07-18T14:04:20.691Z,96597.25
2023-07-18T14:06:54.409Z,96594.63
2023-07-18T14:09:21.001Z,96579.16
2023-07-18T14:11:50.249Z,96583.75
2023-07-18T14:14:16.857Z,96574.59
2023-07-18T14:16:43.643Z,96579.94
2023-07-18T14:19:10.553Z,96574.66
2023-07-18T14:21:39.813Z,96558.13
2023-07-18T14:24:06.699Z,96547.91
2023-07-18T14:26:35.969Z,96535.69
2023-07-18T14:29:04.850Z,96533.84
2023-07-18T14:31:35.876Z,96527.16
2023-07-18T14:34:06.907Z,96524.75
2023-07-18T14:36:34.908Z,96530.84
2023-07-18T14:39:01.773Z,96528.91
2023-07-18T14:41:28.559Z,96532.13
2023-07-18T14:43:55.243Z,96534.50
2023-07-18T14:46:26.682Z,96542.84
2023-07-18T14:48:55.716Z,96531.03
2023-07-18T14:51:23.633Z,96528.03
2023-07-18T14:53:52.737Z,96531.41
2023-07-18T14:56:19.742Z,96528.56
2023-07-18T14:58:49.088Z,96526.16
2023-07-18T15:01:15.914Z,96516.78
2023-07-18T15:03:45.525Z,96510.94
2023-07-18T15:06:12.251Z,96502.72
2023-07-18T15:08:41.878Z,96506.00
2023-07-18T15:11:11.932Z,96503.84
2023-07-18T15:13:38.656Z,96500.34
2023-07-18T15:16:06.045Z,96501.00
2023-07-18T15:18:32.752Z,96498.31
2023-07-18T15:21:05.059Z,96492.75
2023-07-18T15:23:37.414Z,96478.22
2023-07-18T15:26:04.449Z,96477.78
2023-07-18T15:28:33.018Z,96476.22
2023-07-18T15:31:08.626Z,96473.00
2023-07-18T15:33:37.881Z,96467.50
2023-07-18T15:36:13.916Z,96461.16
2023-07-18T15:38:44.703Z,96453.53
2023-07-18T15:41:13.325Z,96452.53
2023-07-18T15:43:44.923Z,96458.63
2023-07-18T15:46:11.873Z,96433.84
2023-07-18T15:48:39.565Z,96429.00
2023-07-18T15:51:09.328Z,96425.47
2023-07-18T15:53:39.189Z,96425.47
2023-07-18T15:56:10.971Z,96426.78
2023-07-18T15:58:39.561Z,96412.19
2023-07-18T16:01:10.179Z,96401.66
2023-07-18T16:03:38.371Z,96404.75
2023-07-18T16:06:08.095Z,96386.84
2023-07-18T16:08:48.722Z,96368.75
2023-07-18T16:11:15.603Z,96370.09
2023-07-18T16:13:44.977Z,96370.44
2023-07-18T16:16:13.678Z,96372.13
2023-07-18T16:18:57.529Z,96380.94
2023-07-18T16:21:25.540Z,96376.56
2023-07-18T16:23:53.368Z,96369.50
2023-07-18T16:26:21.153Z,96366.97
2023-07-18T16:28:54.407Z,96372.38
2023-07-18T16:31:23.875Z,96343.97
2023-07-18T16:33:55.947Z,96347.56
2023-07-18T16:36:24.129Z,96358.22
2023-07-18T16:38:52.982Z,96362.81
2023-07-18T16:41:20.183Z,96348.69
2023-07-18T16:43:46.860Z,96358.09
2023-07-18T16:46:16.627Z,96358.47
2023-07-18T16:48:45.816Z,96336.09
2023-07-18T16:51:14.400Z,96353.00
2023-07-18T16:53:42.073Z,96372.56
2023-07-18T16:56:13.085Z,96377.88
2023-07-18T16:58:43.858Z,96374.66
2023-07-18T17:01:17.113Z,96371.84
2023-07-18T17:03:46.490Z,96384.56
2023-07-18T17:06:13.625Z,96381.25
2023-07-18T17:08:41.876Z,96392.53
2023-07-18T17:11:11.237Z,96391.47
2023-07-18T17:13:38.005Z,96390.50
2023-07-18T17:16:05.325Z,96376.34
2023-07-18T17:18:34.458Z,96389.19
2023-07-18T17:21:03.580Z,96378.84
2023-07-18T17:23:32.881Z,96373.03
2023-07-18T17:26:00.895Z,96396.38
2023-07-18T17:28:29.864Z,96391.34
2023-07-18T17:30:58.114Z,96417.25
2023-07-18T17:33:27.230Z,96424.56
2023-07-18T17:35:54.018Z,96405.34
2023-07-18T17:38:23.152Z,96413.25
2023-07-18T17:40:55.333Z,96416.66
2023-07-18T17:43:23.398Z,96387.13
2023-07-18T17:45:50.608Z,96394.53
2023-07-18T17:48:22.430Z,96371.44
2023-07-18T17:50:49.058Z,96363.59
2023-07-18T17:53:17.204Z,96357.81
2023-07-18T17:55:46.428Z,96352.56
2023-07-18T17:58:13.258Z,96349.16
2023-07-18T18:00:42.712Z,96349.00
2023-07-18T18:03:13.026Z,96344.66
2023-07-18T18:05:48.113Z,96338.28
2023-07-18T18:08:17.116Z,96326.69
2023-07-18T18:10:47.705Z,96322.00
2023-07-18T18:13:15.252Z,96325.50
2023-07-18T18:15:56.288Z,96328.38
2023-07-18T18:18:31.799Z,96337.81
2023-07-18T18:20:59.504Z,96330.59
2023-07-18T18:23:37.420Z,96334.22
2023-07-18T18:26:06.606Z,96332.78
2023-07-18T18:28:33.710Z,96334.97
2023-07-18T18:31:02.970Z,96320.78
2023-07-18T18:33:29.976Z,96318.59
2023-07-18T18:35:57.125Z,96324.50
2023-07-18T18:38:24.019Z,96306.41
2023-07-18T18:40:51.437Z,96308.75
2023-07-18T18:43:19.945Z,96299.84
2023-07-18T18:45:49.789Z,96311.75
2023-07-18T18:48:16.633Z,96305.03
2023-07-18T18:50:43.257Z,96320.88
2023-07-18T18:53:09.897Z,96330.34
2023-07-18T18:55:36.773Z,96332.41
2023-07-18T18:58:05.999Z,96322.59
2023-07-18T19:00:33.039Z,96326.06
2023-07-18T19:03:00.006Z,96336.94
2023-07-18T19:05:27.100Z,96336.22
2023-07-18T19:07:54.104Z,96342.84
2023-07-18T19:10:21.255Z,96348.44
2023-07-18T19:12:48.262Z,96344.16
2023-07-18T19:15:16.369Z,96349.72
2023-07-18T19:17:43.461Z,96364.69
2023-07-18T19:20:10.964Z,96359.97
2023-07-18T19:22:37.932Z,96372.44
2023-07-18T19:25:07.790Z,96358.59
2023-07-18T19:27:34.889Z,96368.03
2023-07-18T19:30:01.857Z,96369.41
2023-07-18T19:32:28.829Z,96358.28
2023-07-18T19:34:55.846Z,96351.31
2023-07-18T19:37:23.146Z,96361.31
2023-07-18T19:39:50.231Z,96374.38
2023-07-18T19:42:17.319Z,96387.91
2023-07-18T19:44:46.082Z,96387.63
2023-07-18T19:47:15.247Z,96399.22
2023-07-18T19:49:45.330Z,96402.00
2023-07-18T19:52:12.449Z,96393.19
2023-07-18T19:54:39.420Z,96388.72
2023-07-18T19:57:06.648Z,96385.75
2023-07-18T19:59:33.828Z,96386.75
2023-07-18T20:02:00.730Z,96386.34
2023-07-18T20:04:27.590Z,96399.81
2023-07-18T20:06:54.542Z,96398.25
2023-07-18T20:09:21.623Z,96387.19
2023-07-18T20:11:51.109Z,96398.63
2023-07-18T20:14:23.775Z,96407.22
2023-07-18T20:16:55.267Z,96406.56
2023-07-18T20:19:22.201Z,96421.91
2023-07-18T20:21:48.925Z,96404.56
2023-07-18T20:24:15.656Z,96409.72
2023-07-18T20:26:43.827Z,96407.75
2023-07-18T20:29:10.852Z,96415.91
2023-07-18T20:31:40.155Z,96416.75
2023-07-18T20:34:09.150Z,96432.34
2023-07-18T20:36:36.549Z,96415.28
2023-07-18T20:39:03.417Z,96419.03
2023-07-18T20:41:31.301Z,96408.09
2023-07-18T20:43:58.203Z,96405.25
2023-07-18T20:46:24.993Z,96424.41
2023-07-18T20:48:52.025Z,96423.50
2023-07-18T20:51:19.073Z,96416.44
2023-07-18T20:53:45.905Z,96410.94
2023-07-18T20:56:15.084Z,96401.06
2023-07-18T20:58:42.197Z,96397.66
2023-07-18T21:01:08.964Z,96401.28
2023-07-18T21:03:35.730Z,96397.78
2023-07-18T21:06:02.502Z,96407.38
2023-07-18T21:08:29.148Z,96410.31
2023-07-18T21:10:58.332Z,96422.75
2023-07-18T21:13:25.184Z,96421.28
2023-07-18T21:15:52.659Z,96428.22
2023-07-18T21:18:19.489Z,96429.41
2023-07-18T21:20:48.661Z,96430.63
2023-07-18T21:23:15.409Z,96428.75
2023-07-18T21:25:44.285Z,96438.16
2023-07-18T21:28:13.195Z,96437.75
2023-07-18T21:30:39.948Z,96438.81
2023-07-18T21:33:11.127Z,96436.78
2023-07-18T21:35:37.833Z,96425.00
2023-07-18T21:38:06.531Z,96429.66
2023-07-18T21:40:33.490Z,96439.03
2023-07-18T21:43:00.357Z,96429.50
2023-07-18T21:45:27.241Z,96434.78
2023-07-18T21:47:54.020Z,96443.34
2023-07-18T21:50:20.804Z,96428.50
2023-07-18T21:52:47.672Z,96438.84
2023-07-18T21:55:14.561Z,96424.84
2023-07-18T21:57:43.876Z,96438.25
2023-07-18T22:00:13.379Z,96439.25
2023-07-18T22:02:40.299Z,96439.47
2023-07-18T22:05:08.029Z,96436.03
2023-07-18T22:07:34.800Z,96427.69
2023-07-18T22:10:03.477Z,96434.44
2023-07-18T22:12:30.572Z,96436.44
2023-07-18T22:14:57.589Z,96435.22
2023-07-18T22:17:27.237Z,96435.44
2023-07-18T22:19:53.965Z,96438.88
2023-07-18T22:22:20.530Z,96431.56
2023-07-18T22:24:49.638Z,96429.31
2023-07-18T22:27:16.569Z,96429.53
2023-07-18T22:29:43.451Z,96426.28
2023-07-18T22:32:10.337Z,96425.25
2023-07-18T22:34:37.175Z,96430.72
2023-07-18T22:37:04.119Z,96441.31
2023-07-18T22:39:36.370Z,96442.13
2023-07-18T22:42:15.372Z,96440.50
2023-07-18T22:44:46.456Z,96437.63
2023-07-18T22:47:14.136Z,96434.16
2023-07-18T22:49:41.592Z,96431.13
2023-07-18T22:52:19.096Z,96429.94
2023-07-18T22:54:51.779Z,96427.88
2023-07-18T22:57:19.032Z,96433.75
2023-07-18T22:59:48.579Z,96432.16
2023-07-18T23:02:15.804Z,96424.44
2023-07-18T23:04:43.626Z,96422.41
2023-07-18T23:07:10.351Z,96423.59
2023-07-18T23:09:37.110Z,96415.66
2023-07-18T23:12:04.048Z,96427.84
2023-07-18T23:14:33.072Z,96415.28
2023-07-18T23:16:59.776Z,96419.13
2023-07-18T23:19:26.918Z,96411.41
2023-07-18T23:21:53.625Z,96412.00
2023-07-18T23:24:20.347Z,96422.56
2023-07-18T23:26:49.338Z,96416.50
2023-07-18T23:29:16.175Z,96427.25
2023-07-18T23:31:45.849Z,96420.09
2023-07-18T23:34:12.883Z,96429.25
2023-07-18T23:36:39.574Z,96427.84
2023-07-18T23:39:06.934Z,96419.50
2023-07-18T23:41:36.244Z,96420.75
2023-07-18T23:44:03.272Z,96409.94
2023-07-18T23:46:29.891Z,96418.84
2023-07-18T23:48:56.968Z,96411.97
2023-07-18T23:51:25.839Z,96412.41
2023-07-18T23:53:53.468Z,96412.81
2023-07-18T23:56:20.732Z,96399.44
2023-07-18T23:58:47.810Z,96405.47
